Time;durP1;ratioP1;P1;durP2;ratioP2;P2;SDS_P1;SDS_P2;PMS_P1;PMS_P2;Temp;Humidity;BMP_temperature;BMP_pressure;BME280_temperature;BME280_humidity;BME280_pressure;Samples;Min_cycle;Max_cycle;Signal;HPM_P1;HPM_P2
2022/07/21 00:01:35;;;;;;;19.27;14.47;;;20.70;75.70;;;;;;4875289;29;20127;-66
2022/07/21 00:04:01;;;;;;;20.43;14.93;;;20.70;76.00;;;;;;4874268;29;20055;-66
2022/07/21 00:06:27;;;;;;;24.00;16.00;;;20.70;76.30;;;;;;4889020;29;20771;-66
2022/07/21 00:08:53;;;;;;;22.53;15.63;;;20.70;76.90;;;;;;4870158;29;20297;-66
2022/07/21 00:11:19;;;;;;;19.93;15.30;;;20.60;77.30;;;;;;4884044;29;20049;-66
2022/07/21 00:13:44;;;;;;;25.57;16.87;;;20.60;77.60;;;;;;4877302;29;20552;-66
2022/07/21 00:16:10;;;;;;;25.67;17.40;;;20.50;77.80;;;;;;4889422;29;20057;-66
2022/07/21 00:18:36;;;;;;;21.63;17.73;;;20.50;78.30;;;;;;4897754;29;20049;-66
2022/07/21 00:21:02;;;;;;;27.57;17.67;;;20.50;79.10;;;;;;4883437;29;20033;-66
2022/07/21 00:23:28;;;;;;;25.23;18.70;;;20.40;79.70;;;;;;4879409;29;20048;-66
2022/07/21 00:25:54;;;;;;;27.00;19.03;;;20.40;80.20;;;;;;4879321;29;20040;-66
2022/07/21 00:28:20;;;;;;;28.50;20.37;;;20.40;80.30;;;;;;4887934;29;20053;-65
2022/07/21 00:30:46;;;;;;;28.67;20.67;;;20.40;80.10;;;;;;4875217;29;20848;-66
2022/07/21 00:33:12;;;;;;;29.00;20.70;;;20.40;80.80;;;;;;4879972;29;20123;-66
2022/07/21 00:35:38;;;;;;;32.40;23.07;;;20.40;80.70;;;;;;4879484;29;20310;-66
2022/07/21 00:38:04;;;;;;;31.40;22.27;;;20.40;81.30;;;;;;4878695;29;20041;-66
2022/07/21 00:40:30;;;;;;;36.33;23.97;;;20.40;81.50;;;;;;4863921;29;20400;-66
2022/07/21 00:42:57;;;;;;;37.23;25.40;;;20.40;82.00;;;;;;4882740;29;20067;-66
2022/07/21 00:45:23;;;;;;;33.13;24.47;;;20.40;82.60;;;;;;4880238;29;20536;-66
2022/07/21 00:47:49;;;;;;;31.00;24.10;;;20.40;82.80;;;;;;4878966;29;20284;-66
2022/07/21 00:50:18;;;;;;;31.53;23.93;;;20.30;83.20;;;;;;4863741;29;20040;-66
2022/07/21 00:52:47;;;;;;;32.00;23.57;;;20.30;82.90;;;;;;4878794;29;20053;-66
2022/07/21 00:55:15;;;;;;;34.03;24.83;;;20.30;82.40;;;;;;4886568;29;20852;-66
2022/07/21 00:57:42;;;;;;;30.33;24.70;;;20.30;83.60;;;;;;4883948;29;20352;-66
2022/07/21 01:00:12;;;;;;;33.00;24.77;;;20.30;83.90;;;;;;4873687;29;20862;-66
2022/07/21 01:02:38;;;;;;;34.30;24.80;;;20.30;84.10;;;;;;4873430;29;20051;-66
2022/07/21 01:05:07;;;;;;;37.10;24.70;;;20.20;84.30;;;;;;4874156;29;20501;-66
2022/07/21 01:07:33;;;;;;;33.13;23.80;;;20.20;84.20;;;;;;4878569;29;20049;-66
2022/07/21 01:09:59;;;;;;;34.40;24.53;;;20.20;84.50;;;;;;4879375;29;20738;-66
2022/07/21 01:12:25;;;;;;;34.83;23.83;;;20.20;84.40;;;;;;4864913;29;20056;-66
2022/07/21 01:14:51;;;;;;;28.47;21.50;;;20.20;84.60;;;;;;4880740;29;20052;-66
2022/07/21 01:17:17;;;;;;;31.30;23.30;;;20.10;84.60;;;;;;4874495;29;20068;-66
2022/07/21 01:19:43;;;;;;;30.30;21.40;;;20.10;84.30;;;;;;4859817;29;20369;-66
2022/07/21 01:22:10;;;;;;;27.23;19.00;;;20.10;84.10;;;;;;4858350;29;20049;-66
2022/07/21 01:24:35;;;;;;;26.93;19.20;;;20.10;84.20;;;;;;4875425;29;20349;-66
2022/07/21 01:27:01;;;;;;;25.33;18.60;;;20.20;84.10;;;;;;4860119;29;20789;-66
2022/07/21 01:29:27;;;;;;;23.23;16.97;;;20.10;84.50;;;;;;4861054;29;20040;-66
2022/07/21 01:31:52;;;;;;;26.93;18.57;;;20.10;84.00;;;;;;4875923;29;20045;-66
2022/07/21 01:34:18;;;;;;;22.47;16.93;;;20.10;83.70;;;;;;4875263;29;20049;-66
2022/07/21 01:36:45;;;;;;;30.07;17.33;;;20.10;83.90;;;;;;4875722;29;20051;-66
2022/07/21 01:41:54;;;;;;;24.93;17.77;;;20.10;84.30;;;;;;4858711;29;20651;-66
2022/07/21 01:44:21;;;;;;;25.07;19.07;;;20.10;84.70;;;;;;4874969;29;20282;-66
2022/07/21 01:46:50;;;;;;;27.93;21.03;;;20.10;84.60;;;;;;4859892;29;20085;-66
2022/07/21 01:49:17;;;;;;;31.03;21.80;;;20.00;84.70;;;;;;4874365;29;20361;-66
2022/07/21 01:51:43;;;;;;;33.67;22.33;;;20.00;85.20;;;;;;4871892;29;20285;-66
2022/07/21 01:54:10;;;;;;;32.67;21.60;;;20.00;85.00;;;;;;4872448;29;20297;-66
2022/07/21 01:56:37;;;;;;;24.27;20.37;;;20.00;85.20;;;;;;4843964;29;20525;-66
2022/07/21 01:59:04;;;;;;;29.67;20.20;;;20.00;85.20;;;;;;4871116;29;20322;-67
2022/07/21 02:01:31;;;;;;;24.33;18.57;;;20.00;85.60;;;;;;4869484;29;20505;-66
2022/07/21 02:04:04;;;;;;;27.17;18.87;;;20.00;85.60;;;;;;4875474;29;20301;-66
2022/07/21 02:06:30;;;;;;;28.20;20.03;;;19.90;85.30;;;;;;4854026;29;20046;-67
2022/07/21 02:08:56;;;;;;;30.13;21.07;;;19.90;85.70;;;;;;4873676;29;20110;-67
2022/07/21 02:11:22;;;;;;;32.93;22.57;;;19.90;85.70;;;;;;4859117;29;20285;-67
2022/07/21 02:13:48;;;;;;;32.97;23.03;;;19.80;85.50;;;;;;4858318;29;20051;-67
2022/07/21 02:16:14;;;;;;;34.83;24.43;;;19.80;85.90;;;;;;4859140;29;20459;-66
2022/07/21 02:18:40;;;;;;;37.33;25.77;;;19.80;86.30;;;;;;4874364;29;20297;-66
2022/07/21 02:21:07;;;;;;;38.60;26.77;;;19.80;86.50;;;;;;4870530;29;20289;-66
2022/07/21 02:23:34;;;;;;;40.83;27.10;;;19.80;86.40;;;;;;4874827;29;20105;-66
2022/07/21 02:26:00;;;;;;;39.97;28.37;;;19.80;86.30;;;;;;4874702;29;20300;-66
2022/07/21 02:28:26;;;;;;;35.63;27.90;;;19.80;86.60;;;;;;4875239;29;20699;-66
2022/07/21 02:30:52;;;;;;;42.50;29.33;;;19.80;86.60;;;;;;4873216;29;20337;-66
2022/07/21 02:33:18;;;;;;;44.03;29.10;;;19.80;86.60;;;;;;4869498;29;20278;-67
2022/07/21 02:35:44;;;;;;;39.53;29.77;;;19.80;87.00;;;;;;4862990;29;20049;-66
2022/07/21 02:38:11;;;;;;;43.70;30.80;;;19.80;87.00;;;;;;4878012;29;20462;-67
2022/07/21 02:40:38;;;;;;;40.13;30.90;;;19.80;86.80;;;;;;4857980;29;20305;-67
2022/07/21 02:43:05;;;;;;;43.53;32.70;;;19.80;87.30;;;;;;4858354;29;20309;-67
2022/07/21 02:45:31;;;;;;;45.87;31.83;;;19.80;87.30;;;;;;4874396;29;20654;-67
2022/07/21 02:48:06;;;;;;;40.67;30.17;;;19.80;87.80;;;;;;4874379;29;20826;-66
2022/07/21 02:50:34;;;;;;;42.80;30.20;;;19.80;87.30;;;;;;4866190;29;20049;-66
2022/07/21 02:53:17;;;;;;;39.57;28.90;;;19.80;87.40;;;;;;4872298;29;20135;-66
2022/07/21 02:55:43;;;;;;;37.53;28.40;;;19.80;87.00;;;;;;4868963;29;20377;-66
2022/07/21 02:58:21;;;;;;;40.20;29.27;;;19.80;87.60;;;;;;4868697;29;20298;-66
2022/07/21 03:00:52;;;;;;;36.00;26.57;;;19.80;87.30;;;;;;4870536;29;20405;-66
2022/07/21 03:03:19;;;;;;;39.13;26.27;;;19.80;87.50;;;;;;4872318;29;20313;-66
2022/07/21 03:05:45;;;;;;;32.43;23.93;;;19.80;87.90;;;;;;4856977;29;20810;-66
2022/07/21 03:08:11;;;;;;;30.60;23.17;;;19.80;87.60;;;;;;4874422;29;20284;-66
2022/07/21 03:10:38;;;;;;;27.20;21.03;;;19.70;87.80;;;;;;4870473;29;20301;-66
2022/07/21 03:13:04;;;;;;;32.40;23.20;;;19.70;87.80;;;;;;4856900;29;20501;-66
2022/07/21 03:15:30;;;;;;;30.33;22.03;;;19.60;87.80;;;;;;4878466;29;20296;-66
2022/07/21 03:17:57;;;;;;;27.03;20.13;;;19.60;87.70;;;;;;4874794;29;20319;-66
2022/07/21 03:20:24;;;;;;;26.43;20.27;;;19.60;88.00;;;;;;4874711;29;20309;-66
2022/07/21 03:22:51;;;;;;;31.20;21.53;;;19.50;87.60;;;;;;4857417;29;20801;-66
2022/07/21 03:25:16;;;;;;;25.37;18.80;;;19.50;87.60;;;;;;4874538;29;20293;-66
2022/07/21 03:27:43;;;;;;;27.90;19.97;;;19.50;87.80;;;;;;4861374;29;20295;-66
2022/07/21 03:30:09;;;;;;;27.50;20.40;;;19.50;88.00;;;;;;4872894;29;20110;-66
2022/07/21 03:32:35;;;;;;;29.90;20.57;;;19.50;88.60;;;;;;4875946;29;20375;-66
2022/07/21 03:35:01;;;;;;;29.17;20.53;;;19.50;88.30;;;;;;4861361;29;20317;-66
2022/07/21 03:37:27;;;;;;;34.03;23.00;;;19.50;88.70;;;;;;4876701;29;20297;-66
2022/07/21 03:39:53;;;;;;;31.80;22.23;;;19.40;88.20;;;;;;4876565;29;20313;-66
2022/07/21 03:42:19;;;;;;;30.50;22.97;;;19.50;88.80;;;;;;4859581;29;20301;-66
2022/07/21 03:44:45;;;;;;;33.67;23.80;;;19.40;88.60;;;;;;4858371;29;20079;-66
2022/07/21 03:47:10;;;;;;;32.43;23.90;;;19.40;88.40;;;;;;4876545;29;20108;-66
2022/07/21 03:49:36;;;;;;;33.07;24.30;;;19.40;88.70;;;;;;4876417;29;20055;-66
2022/07/21 03:52:02;;;;;;;33.57;24.07;;;19.40;89.10;;;;;;4876112;29;20132;-66
2022/07/21 03:54:28;;;;;;;36.00;25.30;;;19.40;89.00;;;;;;4863583;29;20080;-66
2022/07/21 03:56:54;;;;;;;35.10;24.60;;;19.40;88.90;;;;;;4875548;29;20056;-66
2022/07/21 03:59:19;;;;;;;36.10;24.30;;;19.40;89.10;;;;;;4860256;29;20052;-66
2022/07/21 04:01:45;;;;;;;34.43;25.27;;;19.40;89.00;;;;;;4861268;29;20123;-66
2022/07/21 04:04:11;;;;;;;32.80;24.50;;;19.40;89.70;;;;;;4858705;29;20044;-66
2022/07/21 04:06:36;;;;;;;33.37;24.63;;;19.40;89.40;;;;;;4875524;29;20044;-66
2022/07/21 04:09:03;;;;;;;28.93;23.00;;;19.40;89.50;;;;;;4875387;29;20048;-66
2022/07/21 04:11:30;;;;;;;33.10;24.43;;;19.40;89.50;;;;;;4875071;29;20101;-66
2022/07/21 04:13:56;;;;;;;32.07;23.33;;;19.40;89.20;;;;;;4860323;29;20288;-66
2022/07/21 04:16:22;;;;;;;32.70;24.23;;;19.40;89.30;;;;;;4864767;29;20305;-66
2022/07/21 04:18:48;;;;;;;33.17;23.30;;;19.40;90.00;;;;;;4858779;29;20051;-66
2022/07/21 04:21:13;;;;;;;30.33;23.40;;;19.40;89.90;;;;;;4860507;29;20072;-66
2022/07/21 04:23:39;;;;;;;31.90;23.37;;;19.40;90.20;;;;;;4861875;29;20044;-66
2022/07/21 04:26:05;;;;;;;31.23;23.17;;;19.50;90.20;;;;;;4873439;29;20131;-66
2022/07/21 04:28:31;;;;;;;31.20;23.20;;;19.50;90.40;;;;;;4861659;29;20131;-66
2022/07/21 04:30:56;;;;;;;29.90;23.50;;;19.50;90.40;;;;;;4873923;29;20087;-66
2022/07/21 04:33:22;;;;;;;29.90;23.73;;;19.50;90.70;;;;;;4874216;29;20044;-66
2022/07/21 04:35:48;;;;;;;31.33;23.10;;;19.60;90.20;;;;;;4866477;29;20091;-67
2022/07/21 04:38:14;;;;;;;30.33;23.80;;;19.60;90.20;;;;;;4867236;29;20521;-67
2022/07/21 04:40:40;;;;;;;30.33;23.70;;;19.60;89.90;;;;;;4875411;29;20354;-67
2022/07/21 04:43:06;;;;;;;30.53;22.23;;;19.60;89.70;;;;;;4873645;29;20280;-67
2022/07/21 04:45:32;;;;;;;28.97;21.60;;;19.60;90.10;;;;;;4844513;29;20041;-67
2022/07/21 04:47:58;;;;;;;28.03;22.57;;;19.60;90.10;;;;;;4860307;29;20104;-67
2022/07/21 04:50:25;;;;;;;26.23;20.27;;;19.60;90.00;;;;;;4875141;29;20540;-67
2022/07/21 04:52:51;;;;;;;28.13;21.20;;;19.70;90.50;;;;;;4860374;29;20044;-67
2022/07/21 04:55:19;;;;;;;27.47;21.10;;;19.70;90.40;;;;;;4876412;29;20096;-67
2022/07/21 04:57:49;;;;;;;26.30;21.13;;;19.70;90.60;;;;;;4860720;29;20103;-67
2022/07/21 05:00:17;;;;;;;24.27;18.57;;;19.70;90.40;;;;;;4869559;29;20493;-66
2022/07/21 05:02:44;;;;;;;24.80;19.13;;;19.70;90.30;;;;;;4876136;29;20124;-66
2022/07/21 05:05:10;;;;;;;26.43;17.30;;;19.70;90.10;;;;;;4879344;29;20045;-66
2022/07/21 05:07:35;;;;;;;26.43;17.10;;;19.70;90.00;;;;;;4881022;29;20047;-66
2022/07/21 05:10:21;;;;;;;25.37;16.40;;;19.70;89.80;;;;;;4863247;29;20084;-66
2022/07/21 05:12:46;;;;;;;23.43;16.37;;;19.80;89.60;;;;;;4892402;29;20048;-66
2022/07/21 05:15:12;;;;;;;21.27;14.33;;;19.70;89.60;;;;;;4879845;29;20131;-66
2022/07/21 05:17:39;;;;;;;19.77;14.10;;;19.70;89.10;;;;;;4878820;29;20052;-66
2022/07/21 05:20:05;;;;;;;19.70;13.73;;;19.80;88.80;;;;;;4884167;29;20044;-66
2022/07/21 05:22:31;;;;;;;22.90;13.67;;;19.80;88.90;;;;;;4883426;29;20059;-66
2022/07/21 05:24:57;;;;;;;15.60;11.63;;;19.80;88.80;;;;;;4863575;29;20049;-66
2022/07/21 05:27:23;;;;;;;18.47;12.07;;;19.80;88.30;;;;;;4882234;29;20047;-66
2022/07/21 05:29:48;;;;;;;16.33;10.57;;;19.80;88.30;;;;;;4878470;29;20087;-66
2022/07/21 05:32:15;;;;;;;16.93;11.27;;;19.90;88.50;;;;;;4879673;29;20059;-66
2022/07/21 05:34:40;;;;;;;14.93;10.83;;;19.90;88.40;;;;;;4863368;29;20378;-66
2022/07/21 05:37:06;;;;;;;18.33;14.33;;;20.00;87.90;;;;;;4880897;29;20172;-66
2022/07/21 05:39:32;;;;;;;19.63;15.03;;;20.00;87.80;;;;;;4863102;29;20361;-66
2022/07/21 05:41:57;;;;;;;19.87;15.53;;;20.10;87.80;;;;;;4861822;29;20048;-66
2022/07/21 05:44:23;;;;;;;20.57;16.43;;;20.10;87.80;;;;;;4860370;29;20497;-66
2022/07/21 05:46:49;;;;;;;21.43;15.87;;;20.00;87.60;;;;;;4878826;29;20044;-66
2022/07/21 05:49:14;;;;;;;18.07;15.07;;;20.00;87.90;;;;;;4885877;29;20093;-66
2022/07/21 05:51:40;;;;;;;19.40;14.80;;;20.00;87.70;;;;;;4862629;29;20067;-65
2022/07/21 05:54:06;;;;;;;17.57;13.87;;;20.00;87.30;;;;;;4865653;29;20165;-65
2022/07/21 05:56:31;;;;;;;17.70;13.37;;;20.00;87.30;;;;;;4862670;29;20040;-66
2022/07/21 05:58:57;;;;;;;14.17;12.53;;;19.90;87.10;;;;;;4862711;29;20445;-66
2022/07/21 06:01:23;;;;;;;16.10;13.90;;;19.90;86.80;;;;;;4878896;29;20441;-66
2022/07/21 06:03:50;;;;;;;20.00;14.23;;;19.90;86.90;;;;;;4877808;29;20048;-66
2022/07/21 06:06:18;;;;;;;17.30;15.17;;;20.00;87.20;;;;;;4878061;29;20045;-65
2022/07/21 06:08:45;;;;;;;18.57;15.97;;;20.00;87.00;;;;;;4865228;29;20508;-66
2022/07/21 06:11:13;;;;;;;20.00;16.37;;;20.00;86.90;;;;;;4877611;29;20049;-66
2022/07/21 06:13:40;;;;;;;20.87;17.83;;;20.00;87.00;;;;;;4875612;29;20040;-66
2022/07/21 06:16:07;;;;;;;21.50;17.40;;;20.10;87.10;;;;;;4859774;29;20056;-65
2022/07/21 06:18:33;;;;;;;21.70;18.00;;;20.10;87.00;;;;;;4861660;29;20057;-65
2022/07/21 06:20:59;;;;;;;24.00;18.47;;;20.10;87.10;;;;;;4877241;29;20056;-66
2022/07/21 06:23:25;;;;;;;21.30;17.63;;;20.10;86.90;;;;;;4875394;29;20048;-65
2022/07/21 06:25:51;;;;;;;22.13;18.37;;;20.20;86.80;;;;;;4877464;29;20036;-66
2022/07/21 06:28:17;;;;;;;21.07;16.73;;;20.20;86.70;;;;;;4876785;29;20239;-65
2022/07/21 06:30:43;;;;;;;19.47;16.27;;;20.30;87.10;;;;;;4875816;29;20123;-65
2022/07/21 06:33:09;;;;;;;20.50;15.73;;;20.40;87.10;;;;;;4862953;29;20527;-65
2022/07/21 06:35:35;;;;;;;20.67;14.97;;;20.50;86.80;;;;;;4875740;29;20438;-65
2022/07/21 06:38:01;;;;;;;20.53;14.53;;;20.60;85.70;;;;;;4875875;29;20048;-66
2022/07/21 06:40:26;;;;;;;17.27;12.37;;;20.60;85.20;;;;;;4875940;29;20521;-65
2022/07/21 06:42:52;;;;;;;17.20;11.50;;;20.60;84.50;;;;;;4874573;29;20048;-66
2022/07/21 06:45:18;;;;;;;16.37;11.83;;;20.60;84.20;;;;;;4876331;29;20047;-66
2022/07/21 06:47:43;;;;;;;15.93;11.50;;;20.60;84.70;;;;;;4875756;29;20052;-66
2022/07/21 06:50:10;;;;;;;18.07;12.10;;;20.70;84.40;;;;;;4876158;29;20045;-66
2022/07/21 06:52:36;;;;;;;16.90;11.63;;;20.70;84.60;;;;;;4875115;29;20037;-67
2022/07/21 06:55:05;;;;;;;14.07;10.10;;;20.70;84.20;;;;;;4863672;29;20040;-67
2022/07/21 06:57:31;;;;;;;15.33;10.60;;;20.70;84.20;;;;;;4875111;29;20128;-67
2022/07/21 06:59:56;;;;;;;12.80;9.80;;;20.80;84.20;;;;;;4873848;29;20180;-66
2022/07/21 07:02:22;;;;;;;12.67;10.60;;;20.80;84.20;;;;;;4875387;29;20092;-67
2022/07/21 07:04:48;;;;;;;14.73;10.53;;;20.90;83.70;;;;;;4873457;29;20137;-67
2022/07/21 07:07:13;;;;;;;15.83;11.57;;;20.90;83.60;;;;;;4859796;29;20594;-67
2022/07/21 07:09:40;;;;;;;15.27;12.30;;;21.00;83.60;;;;;;4857107;29;20390;-65
2022/07/21 07:12:08;;;;;;;15.17;12.03;;;21.00;83.60;;;;;;4874755;29;20126;-66
2022/07/21 07:14:34;;;;;;;15.40;12.50;;;21.00;83.90;;;;;;4859675;29;20368;-65
2022/07/21 07:17:02;;;;;;;16.43;12.57;;;21.00;83.50;;;;;;4862474;29;20073;-65
2022/07/21 07:19:28;;;;;;;16.13;11.87;;;21.10;83.60;;;;;;4861171;29;20049;-65
2022/07/21 07:21:54;;;;;;;10.90;9.23;;;21.10;83.60;;;;;;4875458;29;20516;-65
2022/07/21 07:24:20;;;;;;;13.07;9.80;;;21.00;83.30;;;;;;4872196;29;20052;-65
2022/07/21 07:26:46;;;;;;;15.97;10.70;;;21.00;83.10;;;;;;4874227;29;20040;-65
2022/07/21 07:29:12;;;;;;;16.30;12.60;;;20.90;82.90;;;;;;4863920;29;20152;-65
2022/07/21 07:31:39;;;;;;;17.27;13.30;;;20.90;83.30;;;;;;4874121;29;20053;-65
2022/07/21 07:34:05;;;;;;;17.50;13.80;;;20.90;83.60;;;;;;4854816;29;20053;-65
2022/07/21 07:36:31;;;;;;;17.70;15.43;;;20.90;83.60;;;;;;4858901;29;20096;-65
2022/07/21 07:38:58;;;;;;;21.17;16.00;;;20.90;83.60;;;;;;4861158;29;20056;-65
2022/07/21 07:41:26;;;;;;;20.77;16.60;;;20.90;83.50;;;;;;4875536;29;20060;-65
2022/07/21 07:43:52;;;;;;;19.90;16.40;;;20.80;83.50;;;;;;4874863;29;20050;-65
2022/07/21 07:46:19;;;;;;;22.10;16.33;;;20.80;83.80;;;;;;4860645;29;20392;-65
2022/07/21 07:48:45;;;;;;;20.10;15.80;;;20.80;84.10;;;;;;4861220;29;20048;-66
2022/07/21 07:51:12;;;;;;;20.30;16.50;;;20.70;83.80;;;;;;4875509;29;20397;-66
2022/07/21 07:53:38;;;;;;;22.10;18.03;;;20.70;84.20;;;;;;4873615;29;20040;-66
2022/07/21 07:56:04;;;;;;;21.20;17.30;;;20.70;84.30;;;;;;4867090;29;20045;-67
2022/07/21 07:58:30;;;;;;;21.00;17.57;;;20.70;84.50;;;;;;4876477;29;20052;-67
2022/07/21 08:00:56;;;;;;;22.13;18.87;;;20.70;84.50;;;;;;4864049;29;20051;-67
2022/07/21 08:03:23;;;;;;;22.20;18.90;;;20.70;84.50;;;;;;4861056;29;20132;-67
2022/07/21 08:05:49;;;;;;;26.97;19.53;;;20.70;84.60;;;;;;4871894;29;20531;-67
2022/07/21 08:08:16;;;;;;;26.07;20.07;;;20.70;84.50;;;;;;4875693;29;20119;-67
2022/07/21 08:10:43;;;;;;;23.27;18.60;;;20.70;84.20;;;;;;4860711;29;20115;-67
2022/07/21 08:13:11;;;;;;;23.17;18.43;;;20.70;84.30;;;;;;4876253;29;20135;-67
2022/07/21 08:15:37;;;;;;;22.20;19.23;;;20.70;84.30;;;;;;4862281;29;20095;-67
2022/07/21 08:18:03;;;;;;;25.30;19.83;;;20.70;84.40;;;;;;4889039;29;20053;-67
2022/07/21 08:20:29;;;;;;;25.13;20.43;;;20.80;84.70;;;;;;4875018;29;20521;-67
2022/07/21 08:22:57;;;;;;;24.23;20.63;;;20.80;84.50;;;;;;4861638;29;20095;-67
2022/07/21 08:25:23;;;;;;;22.43;19.10;;;20.90;84.10;;;;;;4877260;29;20037;-67
2022/07/21 08:27:49;;;;;;;21.80;16.60;;;20.90;84.00;;;;;;4873336;29;20052;-67
2022/07/21 08:30:14;;;;;;;15.10;13.40;;;20.90;83.60;;;;;;4857146;29;20079;-67
2022/07/21 08:32:40;;;;;;;14.00;12.47;;;20.80;83.00;;;;;;4877973;29;20063;-67
2022/07/21 08:35:08;;;;;;;16.53;14.77;;;20.70;82.90;;;;;;4872348;29;20467;-67
2022/07/21 08:37:35;;;;;;;15.20;13.60;;;20.70;83.30;;;;;;4856435;29;20529;-66
2022/07/21 08:40:05;;;;;;;18.53;15.97;;;20.70;82.80;;;;;;4851707;29;20064;-66
2022/07/21 08:42:34;;;;;;;20.30;17.20;;;20.70;83.20;;;;;;4860025;29;20040;-66
2022/07/21 08:45:00;;;;;;;21.50;18.87;;;20.70;83.30;;;;;;4878596;29;20096;-66
2022/07/21 08:47:26;;;;;;;23.47;18.33;;;20.70;83.60;;;;;;4875228;29;20079;-66
2022/07/21 08:49:54;;;;;;;23.67;18.37;;;20.60;83.50;;;;;;4875357;29;20044;-66
2022/07/21 08:52:20;;;;;;;20.17;16.80;;;20.60;83.60;;;;;;4876469;29;20060;-66
2022/07/21 08:54:46;;;;;;;17.60;15.70;;;20.60;84.10;;;;;;4866493;29;20044;-66
2022/07/21 08:57:12;;;;;;;17.40;15.23;;;20.50;83.50;;;;;;4878386;29;20052;-66
2022/07/21 08:59:38;;;;;;;19.73;16.57;;;20.40;83.50;;;;;;4878269;29;20405;-66
2022/07/21 09:02:04;;;;;;;21.10;17.97;;;20.30;83.60;;;;;;4878472;29;20052;-66
2022/07/21 09:04:33;;;;;;;23.33;19.30;;;20.20;84.00;;;;;;4875330;29;20283;-66
2022/07/21 09:07:05;;;;;;;24.23;19.03;;;20.10;84.30;;;;;;4873741;29;20622;-67
2022/07/21 09:09:33;;;;;;;24.13;19.43;;;20.00;84.70;;;;;;4877142;29;20397;-66
2022/07/21 09:12:00;;;;;;;19.60;15.53;;;19.80;85.40;;;;;;4874907;29;20052;-66
2022/07/21 09:14:29;;;;;;;23.50;13.93;;;19.70;85.70;;;;;;4876294;29;20047;-67
2022/07/21 09:16:57;;;;;;;19.13;13.77;;;19.50;86.10;;;;;;4862010;29;20575;-68
2022/07/21 09:19:31;;;;;;;18.40;13.40;;;19.40;86.10;;;;;;4877432;29;20502;-68
2022/07/21 09:21:59;;;;;;;16.37;12.40;;;19.30;86.90;;;;;;4877508;29;20058;-68
2022/07/21 09:24:31;;;;;;;14.87;12.93;;;19.20;88.00;;;;;;4890823;29;20037;-69
2022/07/21 09:27:06;;;;;;;17.80;12.93;;;19.10;88.20;;;;;;4873816;29;20309;-69
2022/07/21 09:29:37;;;;;;;13.48;12.07;;;19.10;88.50;;;;;;4890152;29;20057;-69
2022/07/21 09:32:23;;;;;;;15.93;12.57;;;19.10;89.20;;;;;;4861657;29;20044;-69
2022/07/21 09:34:51;;;;;;;14.65;13.05;;;19.10;89.70;;;;;;4870593;29;20123;-70
2022/07/21 09:37:19;;;;;;;16.23;13.10;;;19.10;89.60;;;;;;4865235;29;20048;-70
2022/07/21 09:39:56;;;;;;;13.83;12.07;;;19.20;90.20;;;;;;4862808;29;20140;-70
2022/07/21 09:42:32;;;;;;;16.30;13.23;;;19.30;90.20;;;;;;4875895;29;20140;-70
2022/07/21 09:45:08;;;;;;;18.40;13.10;;;19.40;90.40;;;;;;4874925;29;20044;-70
2022/07/21 09:47:34;;;;;;;16.43;12.50;;;19.40;90.60;;;;;;4875393;29;20091;-70
2022/07/21 09:50:01;;;;;;;14.53;12.83;;;19.50;90.80;;;;;;4875547;29;20051;-70
2022/07/21 09:52:32;;;;;;;16.57;12.97;;;19.60;91.20;;;;;;4876956;29;20727;-71
2022/07/21 09:55:01;;;;;;;13.67;12.23;;;19.60;91.10;;;;;;4861298;29;20124;-71
2022/07/21 09:57:27;;;;;;;15.57;12.63;;;19.70;91.20;;;;;;4875563;29;20056;-70
2022/07/21 09:59:54;;;;;;;14.90;12.40;;;19.70;91.10;;;;;;4873769;29;20045;-70
2022/07/21 10:02:28;;;;;;;18.60;14.13;;;19.80;91.40;;;;;;4875166;29;20651;-70
2022/07/21 10:05:07;;;;;;;15.13;12.85;;;19.90;91.30;;;;;;4862403;29;20052;-70
2022/07/21 10:07:43;;;;;;;15.53;13.60;;;20.10;91.60;;;;;;4890276;29;20392;-70
2022/07/21 10:10:10;;;;;;;17.93;14.67;;;20.10;91.40;;;;;;4876835;29;20052;-70
2022/07/21 10:12:36;;;;;;;17.43;13.73;;;20.30;91.80;;;;;;4843996;29;20047;-70
2022/07/21 10:15:03;;;;;;;15.30;13.00;;;20.30;91.20;;;;;;4877938;29;20051;-70
2022/07/21 10:17:29;;;;;;;15.23;13.43;;;20.30;90.80;;;;;;4872875;29;20067;-70
2022/07/21 10:20:14;;;;;;;18.00;13.80;;;20.30;90.60;;;;;;4848517;29;20041;-70
2022/07/21 10:22:59;;;;;;;;;;;20.30;90.80;;;;;;4890970;29;20041;-70
2022/07/21 10:25:28;;;;;;;15.40;13.33;;;20.30;90.10;;;;;;4861989;29;20053;-70
2022/07/21 10:28:14;;;;;;;15.40;13.37;;;20.30;90.80;;;;;;4877925;29;20448;-70
2022/07/21 10:30:55;;;;;;;18.53;13.43;;;20.30;91.10;;;;;;4876846;29;20055;-70
2022/07/21 10:33:41;;;;;;;16.43;13.13;;;20.30;90.80;;;;;;4875431;29;20503;-70
2022/07/21 10:36:07;;;;;;;18.87;14.30;;;20.10;89.90;;;;;;4865113;29;20417;-69
2022/07/21 10:38:35;;;;;;;19.37;14.43;;;20.00;90.80;;;;;;4863186;29;20044;-69
2022/07/21 10:41:04;;;;;;;14.57;12.90;;;20.00;90.90;;;;;;4879903;29;20059;-69
2022/07/21 10:43:29;;;;;;;15.63;13.83;;;19.90;91.10;;;;;;4860261;29;20055;-69
2022/07/21 10:45:57;;;;;;;17.03;13.33;;;19.80;90.70;;;;;;4877276;29;20510;-69
2022/07/21 10:48:41;;;;;;;15.57;13.20;;;19.70;90.50;;;;;;4863098;29;20417;-68
2022/07/21 10:51:08;;;;;;;16.10;12.57;;;19.70;91.30;;;;;;4876043;29;20417;-68
2022/07/21 10:53:34;;;;;;;14.00;12.07;;;19.80;91.30;;;;;;4874681;29;20120;-68
2022/07/21 10:56:00;;;;;;;11.20;9.87;;;19.80;91.50;;;;;;4844849;29;20044;-68
2022/07/21 10:58:29;;;;;;;11.70;10.33;;;19.80;91.40;;;;;;4862109;29;20051;-68
2022/07/21 11:01:00;;;;;;;11.43;10.23;;;19.80;91.10;;;;;;4858310;29;20120;-68
2022/07/21 11:03:28;;;;;;;13.43;10.67;;;19.90;91.50;;;;;;4869536;29;20051;-68
2022/07/21 11:06:05;;;;;;;12.37;10.80;;;19.90;91.50;;;;;;4867937;29;20201;-68
2022/07/21 11:08:32;;;;;;;15.50;12.27;;;19.90;91.30;;;;;;4870089;29;20055;-68
2022/07/21 11:11:25;;;;;;;15.53;12.37;;;19.80;91.40;;;;;;4859671;29;20040;-68
2022/07/21 11:14:12;;;;;;;15.33;12.03;;;19.90;91.50;;;;;;4865788;29;20104;-68
2022/07/21 11:16:41;;;;;;;14.23;12.07;;;19.90;91.60;;;;;;4872310;29;20053;-68
2022/07/21 11:19:49;;;;;;;13.83;12.07;;;19.90;91.70;;;;;;4872452;29;20498;-68
2022/07/21 11:22:29;;;;;;;12.57;11.13;;;20.00;92.30;;;;;;4867726;29;20135;-68
2022/07/21 11:25:04;;;;;;;12.43;11.13;;;20.00;91.90;;;;;;4873638;29;20115;-68
2022/07/21 11:27:33;;;;;;;14.00;10.57;;;20.00;91.60;;;;;;4868662;29;20044;-67
2022/07/21 11:30:04;;;;;;;12.73;10.57;;;19.90;91.30;;;;;;4877745;29;20450;-67
2022/07/21 11:32:29;;;;;;;11.00;9.10;;;19.90;91.00;;;;;;4869459;29;20051;-68
2022/07/21 11:34:58;;;;;;;10.53;9.20;;;20.00;91.50;;;;;;4874728;29;20040;-67
2022/07/21 11:37:27;;;;;;;12.03;10.00;;;20.00;91.00;;;;;;4873061;29;20071;-67
2022/07/21 11:39:52;;;;;;;10.17;8.73;;;20.10;91.10;;;;;;4871898;29;20386;-67
2022/07/21 11:42:18;;;;;;;12.00;9.77;;;20.20;90.70;;;;;;4871258;29;20048;-68
2022/07/21 11:44:44;;;;;;;12.27;9.83;;;20.20;90.30;;;;;;4869373;29;20040;-67
2022/07/21 11:47:13;;;;;;;13.60;11.60;;;20.20;90.30;;;;;;4875086;29;20102;-67
2022/07/21 11:49:40;;;;;;;13.53;11.37;;;20.20;89.80;;;;;;4858329;29;20055;-67
2022/07/21 11:52:12;;;;;;;14.53;11.07;;;20.20;89.70;;;;;;4868883;29;20045;-67
2022/07/21 11:54:49;;;;;;;12.07;10.63;;;20.20;90.30;;;;;;4869951;29;20413;-67
2022/07/21 11:57:17;;;;;;;12.73;11.20;;;20.10;89.60;;;;;;4858815;29;20096;-67
2022/07/21 11:59:43;;;;;;;13.43;11.30;;;20.00;88.80;;;;;;4871557;29;20450;-67
2022/07/21 12:02:13;;;;;;;12.67;11.37;;;20.00;89.20;;;;;;4869446;29;20056;-67
2022/07/21 12:04:44;;;;;;;14.53;11.13;;;20.00;89.70;;;;;;4872860;29;20091;-67
2022/07/21 12:07:18;;;;;;;14.90;11.60;;;19.90;90.30;;;;;;4854797;29;20502;-67
2022/07/21 12:09:47;;;;;;;13.65;11.85;;;19.90;90.40;;;;;;4860077;29;20052;-67
2022/07/21 12:12:13;;;;;;;14.00;11.17;;;19.90;90.30;;;;;;4873885;29;20123;-67
2022/07/21 12:14:39;;;;;;;14.07;11.17;;;19.80;90.20;;;;;;4863229;29;20092;-67
2022/07/21 12:17:05;;;;;;;10.87;9.30;;;19.80;89.90;;;;;;4873404;29;20068;-67
2022/07/21 12:19:31;;;;;;;10.33;8.57;;;19.70;89.90;;;;;;4871712;29;20056;-67
2022/07/21 12:21:57;;;;;;;9.57;8.20;;;19.60;90.00;;;;;;4872217;29;20136;-67
2022/07/21 12:24:48;;;;;;;10.00;8.17;;;19.50;90.50;;;;;;4869053;29;20049;-67
2022/07/21 12:27:16;;;;;;;10.80;8.70;;;19.50;90.70;;;;;;4872652;29;20521;-67
2022/07/21 12:29:41;;;;;;;11.17;9.90;;;19.40;90.40;;;;;;4869933;29;20124;-67
2022/07/21 12:32:07;;;;;;;11.57;10.13;;;19.40;90.40;;;;;;4858439;29;20136;-67
2022/07/21 12:34:51;;;;;;;11.90;10.00;;;19.50;90.70;;;;;;4875276;29;20391;-67